createdAt,value
2023-01-27T00:00:33.378Z,-1.94
2023-01-27T00:03:00.324Z,-1.92
2023-01-27T00:05:27.467Z,-1.89
2023-01-27T00:07:55.524Z,-1.89
2023-01-27T00:10:22.443Z,-1.95
2023-01-27T00:13:12.468Z,-2.01
2023-01-27T00:15:39.573Z,-2.08
2023-01-27T00:18:07.171Z,-2.08
2023-01-27T00:20:54.441Z,-2.05
2023-01-27T00:23:41.747Z,-2.03
2023-01-27T00:26:10.307Z,-2.04
2023-01-27T00:28:38.744Z,-2.04
2023-01-27T00:31:06.564Z,-2.03
2023-01-27T00:33:34.213Z,-2.04
2023-01-27T00:36:14.632Z,-2.09
2023-01-27T00:38:44.502Z,-2.12
2023-01-27T00:41:20.435Z,-2.13
2023-01-27T00:43:47.980Z,-2.15
2023-01-27T00:46:15.704Z,-2.19
2023-01-27T00:48:42.651Z,-2.23
2023-01-27T00:51:09.969Z,-2.25
2023-01-27T00:53:37.229Z,-2.29
2023-01-27T00:56:04.665Z,-2.32
2023-01-27T00:58:31.723Z,-2.34
2023-01-27T01:01:01.409Z,-2.37
2023-01-27T01:03:31.847Z,-2.40
2023-01-27T01:06:02.506Z,-2.43
2023-01-27T01:08:30.842Z,-2.46
2023-01-27T01:10:57.843Z,-2.44
2023-01-27T01:13:25.197Z,-2.43
2023-01-27T01:15:52.216Z,-2.47
2023-01-27T01:18:19.152Z,-2.48
2023-01-27T01:20:46.663Z,-2.47
2023-01-27T01:23:18.050Z,-2.47
2023-01-27T01:25:52.675Z,-2.46
2023-01-27T01:28:19.656Z,-2.43
2023-01-27T01:30:46.740Z,-2.41
2023-01-27T01:33:13.964Z,-2.41
2023-01-27T01:35:41.165Z,-2.41
2023-01-27T01:38:09.260Z,-2.39
2023-01-27T01:40:40.105Z,-2.34
2023-01-27T01:43:12.105Z,-2.30
2023-01-27T01:45:47.904Z,-2.28
2023-01-27T01:48:24.091Z,-2.24
2023-01-27T01:50:59.133Z,-2.22
2023-01-27T01:53:30.062Z,-2.22
2023-01-27T01:56:05.387Z,-2.22
2023-01-27T01:58:32.396Z,-2.17
2023-01-27T02:00:59.380Z,-2.13
2023-01-27T02:03:28.142Z,-2.11
2023-01-27T02:05:56.253Z,-2.13
2023-01-27T02:08:29.736Z,-2.10
2023-01-27T02:10:57.050Z,-2.10
2023-01-27T02:13:23.871Z,-2.11
2023-01-27T02:15:52.369Z,-2.15
2023-01-27T02:18:19.326Z,-2.18
2023-01-27T02:20:47.724Z,-2.20
2023-01-27T02:23:33.585Z,-2.23
2023-01-27T02:26:14.363Z,-2.25
2023-01-27T02:28:41.183Z,-2.25
2023-01-27T02:31:08.166Z,-2.23
2023-01-27T02:33:35.255Z,-2.23
2023-01-27T02:36:16.685Z,-2.22
2023-01-27T02:38:52.227Z,-2.26
2023-01-27T02:41:22.873Z,-2.31
2023-01-27T02:43:50.061Z,-2.35
2023-01-27T02:46:17.920Z,-2.33
2023-01-27T02:48:45.680Z,-2.31
2023-01-27T02:51:12.869Z,-2.28
2023-01-27T02:53:42.850Z,-2.29
2023-01-27T02:56:09.858Z,-2.36
2023-01-27T02:58:36.935Z,-2.36
2023-01-27T03:01:16.366Z,-2.34
2023-01-27T03:03:47.827Z,-2.32
2023-01-27T03:06:19.550Z,-2.32
2023-01-27T03:08:46.467Z,-2.33
2023-01-27T03:11:15.053Z,-2.35
2023-01-27T03:13:42.196Z,-2.37
2023-01-27T03:16:30.610Z,-2.42
2023-01-27T03:18:57.656Z,-2.46
2023-01-27T03:21:25.271Z,-2.48
2023-01-27T03:23:52.247Z,-2.50
2023-01-27T03:26:22.495Z,-2.48
2023-01-27T03:29:12.812Z,-2.48
2023-01-27T03:31:42.839Z,-2.47
2023-01-27T03:34:10.618Z,-2.44
2023-01-27T03:37:12.322Z,-2.40
2023-01-27T03:39:58.276Z,-2.41
2023-01-27T03:42:43.690Z,-2.42
2023-01-27T03:45:29.536Z,-2.43
2023-01-27T03:47:56.304Z,-2.40
2023-01-27T03:50:37.877Z,-2.39
2023-01-27T03:53:06.140Z,-2.37
2023-01-27T03:55:33.987Z,-2.35
2023-01-27T03:58:19.918Z,-2.39
2023-01-27T04:00:56.438Z,-2.44
2023-01-27T04:03:43.150Z,-2.52
2023-01-27T04:06:59.025Z,-2.59
2023-01-27T04:09:25.953Z,-2.59
2023-01-27T04:11:56.246Z,-2.56
2023-01-27T04:14:25.157Z,-2.54
2023-01-27T04:16:53.563Z,-2.52
2023-01-27T04:19:20.526Z,-2.53
2023-01-27T04:21:47.546Z,-2.58
2023-01-27T04:24:19.880Z,-2.61
2023-01-27T04:26:50.145Z,-2.63
2023-01-27T04:29:18.724Z,-2.63
2023-01-27T04:31:45.958Z,-2.61
2023-01-27T04:34:13.182Z,-2.62
2023-01-27T04:40:36.311Z,-2.61
2023-01-27T04:43:06.827Z,-2.65
2023-01-27T04:45:40.329Z,-2.69
2023-01-27T04:48:07.669Z,-2.69
2023-01-27T04:50:34.987Z,-2.66
2023-01-27T04:53:02.033Z,-2.63
2023-01-27T04:55:29.572Z,-2.64
2023-01-27T04:57:56.680Z,-2.64
2023-01-27T05:00:23.747Z,-2.64
2023-01-27T05:02:51.413Z,-2.62
2023-01-27T05:05:18.814Z,-2.66
2023-01-27T05:07:45.786Z,-2.69
2023-01-27T05:10:12.589Z,-2.70
2023-01-27T05:12:39.815Z,-2.67
2023-01-27T05:15:08.180Z,-2.66
2023-01-27T05:17:35.220Z,-2.66
2023-01-27T05:20:02.227Z,-2.66
2023-01-27T05:22:29.839Z,-2.64
2023-01-27T05:24:56.817Z,-2.62
2023-01-27T05:27:26.297Z,-2.59
2023-01-27T05:29:57.345Z,-2.58
2023-01-27T05:32:24.375Z,-2.57
2023-01-27T05:34:51.279Z,-2.58
2023-01-27T05:37:18.153Z,-2.60
2023-01-27T05:39:45.073Z,-2.62
2023-01-27T05:42:11.963Z,-2.62
2023-01-27T05:44:38.763Z,-2.62
2023-01-27T05:47:09.568Z,-2.59
2023-01-27T05:49:36.638Z,-2.54
2023-01-27T05:52:05.904Z,-2.54
2023-01-27T05:54:34.322Z,-2.54
2023-01-27T05:57:04.294Z,-2.52
2023-01-27T05:59:31.483Z,-2.48
2023-01-27T06:02:01.403Z,-2.46
2023-01-27T06:04:29.192Z,-2.46
2023-01-27T06:06:56.039Z,-2.49
2023-01-27T06:09:22.824Z,-2.49
2023-01-27T06:11:49.700Z,-2.51
2023-01-27T06:14:16.701Z,-2.50
2023-01-27T06:16:44.226Z,-2.49
2023-01-27T06:19:11.356Z,-2.48
2023-01-27T06:21:38.365Z,-2.44
2023-01-27T06:24:07.831Z,-2.44
2023-01-27T06:26:36.909Z,-2.40
2023-01-27T06:29:03.764Z,-2.39
2023-01-27T06:31:30.844Z,-2.34
2023-01-27T06:33:57.845Z,-2.31
2023-01-27T06:36:24.900Z,-2.28
2023-01-27T06:38:55.457Z,-2.27
2023-01-27T06:41:22.393Z,-2.26
2023-01-27T06:43:49.497Z,-2.25
2023-01-27T06:46:25.769Z,-2.22
2023-01-27T06:48:52.859Z,-2.19
2023-01-27T06:51:19.909Z,-2.14
2023-01-27T06:53:46.974Z,-2.09
2023-01-27T06:56:17.491Z,-2.08
2023-01-27T06:58:44.712Z,-2.03
2023-01-27T07:01:14.830Z,-2.01
2023-01-27T07:03:44.422Z,-2.03
2023-01-27T07:06:11.938Z,-2.04
2023-01-27T07:08:38.990Z,-2.03
2023-01-27T07:11:05.982Z,-2.01
2023-01-27T07:13:32.939Z,-2.03
2023-01-27T07:16:00.651Z,-2.03
2023-01-27T07:18:30.452Z,-1.96
2023-01-27T07:20:57.474Z,-1.91
2023-01-27T07:23:24.667Z,-1.88
2023-01-27T07:25:51.676Z,-1.84
2023-01-27T07:28:18.658Z,-1.83
2023-01-27T07:30:45.646Z,-1.81
2023-01-27T07:33:14.334Z,-1.78
2023-01-27T07:35:48.457Z,-1.75
2023-01-27T07:38:16.024Z,-1.71
2023-01-27T07:40:43.168Z,-1.65
2023-01-27T07:43:10.683Z,-1.64
2023-01-27T07:45:40.524Z,-1.65
2023-01-27T07:48:08.956Z,-1.62
2023-01-27T07:50:36.515Z,-1.60
2023-01-27T07:53:04.854Z,-1.60
2023-01-27T07:55:32.629Z,-1.62
2023-01-27T07:57:59.927Z,-1.64
2023-01-27T08:00:28.541Z,-1.61
2023-01-27T08:02:59.035Z,-1.54
2023-01-27T08:05:30.495Z,-1.54
2023-01-27T08:08:16.208Z,-1.56
2023-01-27T08:10:49.596Z,-1.52
2023-01-27T08:13:17.183Z,-1.43
2023-01-27T08:15:45.073Z,-1.36
2023-01-27T08:18:12.493Z,-1.40
2023-01-27T08:20:39.686Z,-1.41
2023-01-27T08:23:06.710Z,-1.44
2023-01-27T08:25:33.868Z,-1.45
2023-01-27T08:28:01.041Z,-1.44
2023-01-27T08:30:28.300Z,-1.43
2023-01-27T08:32:55.727Z,-1.37
2023-01-27T08:35:23.105Z,-1.32
2023-01-27T08:37:50.432Z,-1.35
2023-01-27T08:40:23.097Z,-1.36
2023-01-27T08:42:56.892Z,-1.33
2023-01-27T08:45:27.252Z,-1.30
2023-01-27T08:47:54.545Z,-1.25
2023-01-27T08:50:21.908Z,-1.21
2023-01-27T08:52:49.234Z,-1.14
2023-01-27T08:55:16.421Z,-1.07
2023-01-27T08:57:43.935Z,-1.05
2023-01-27T09:00:13.732Z,-1.05
2023-01-27T09:02:41.287Z,-1.09
2023-01-27T09:05:08.294Z,-1.12
2023-01-27T09:07:37.909Z,-1.11
2023-01-27T09:10:14.095Z,-1.07
2023-01-27T09:12:47.164Z,-1.04
2023-01-27T09:15:20.889Z,-1.05
2023-01-27T09:17:48.589Z,-1.02
2023-01-27T09:20:16.443Z,-0.99
2023-01-27T09:22:43.703Z,-1.01
2023-01-27T09:25:14.401Z,-1.03
2023-01-27T09:27:41.813Z,-1.02
2023-01-27T09:30:15.838Z,-1.04
2023-01-27T09:32:43.216Z,-1.09
2023-01-27T09:35:10.451Z,-1.15
2023-01-27T09:37:53.856Z,-1.19
2023-01-27T09:40:32.267Z,-1.21
2023-01-27T09:43:11.577Z,-1.20
2023-01-27T09:45:42.034Z,-1.19
2023-01-27T09:48:28.019Z,-1.14
2023-01-27T09:51:03.975Z,-1.08
2023-01-27T09:53:34.217Z,-1.01
2023-01-27T09:56:20.044Z,-0.96
2023-01-27T09:58:53.255Z,-0.91
2023-01-27T10:01:41.671Z,-0.87
2023-01-27T10:04:14.776Z,-0.87
2023-01-27T10:06:58.112Z,-0.84
2023-01-27T10:09:36.347Z,-0.87
2023-01-27T10:12:21.021Z,-0.93
2023-01-27T10:15:25.180Z,-1.01
2023-01-27T10:18:06.994Z,-1.02
2023-01-27T10:20:34.075Z,-1.04
2023-01-27T10:23:01.309Z,-1.04
2023-01-27T10:25:34.672Z,-1.02
2023-01-27T10:28:07.373Z,-1.00
2023-01-27T10:31:09.721Z,-0.97
2023-01-27T10:39:55.583Z,-0.94
2023-01-27T10:42:05.213Z,-0.98
2023-01-27T10:45:06.990Z,-0.96
2023-01-27T10:47:40.596Z,-1.00
2023-01-27T10:50:26.675Z,-1.04
2023-01-27T10:53:08.617Z,-1.08
2023-01-27T10:55:38.651Z,-1.07
2023-01-27T10:58:28.869Z,-1.10
2023-01-27T11:01:21.437Z,-1.10
2023-01-27T11:04:11.038Z,-1.11
2023-01-27T11:06:44.957Z,-1.13
2023-01-27T11:09:24.982Z,-1.15
2023-01-27T11:11:52.615Z,-1.18
2023-01-27T11:14:38.967Z,-1.17
2023-01-27T11:17:18.184Z,-1.16
2023-01-27T11:19:52.857Z,-1.13
2023-01-27T11:22:52.703Z,-1.12
2023-01-27T11:30:45.247Z,-1.11
2023-01-27T11:33:22.194Z,-1.11
2023-01-27T11:35:49.743Z,-1.10
2023-01-27T11:38:19.062Z,-1.08
2023-01-27T11:40:47.172Z,-1.03
2023-01-27T11:43:18.163Z,-0.98
2023-01-27T11:45:46.803Z,-0.95
2023-01-27T11:48:17.687Z,-0.94
2023-01-27T11:50:47.374Z,-0.91
2023-01-27T11:53:28.474Z,-0.84
2023-01-27T11:56:02.470Z,-0.82
2023-01-27T11:58:43.496Z,-0.83
2023-01-27T12:01:18.134Z,-0.85
2023-01-27T12:04:09.876Z,-0.86
2023-01-27T12:07:34.867Z,-0.87
2023-01-27T12:14:54.616Z,-0.94
2023-01-27T12:17:31.751Z,-0.95
2023-01-27T12:20:03.888Z,-0.94
2023-01-27T12:22:40.555Z,-0.94
2023-01-27T12:25:14.382Z,-0.90
2023-01-27T12:27:47.085Z,-0.86
2023-01-27T12:30:34.529Z,-0.84
2023-01-27T12:33:11.175Z,-0.83
2023-01-27T12:35:38.093Z,-0.83
2023-01-27T12:38:17.635Z,-0.81
2023-01-27T12:40:46.160Z,-0.77
2023-01-27T12:43:13.637Z,-0.78
2023-01-27T12:45:50.873Z,-0.79
2023-01-27T12:48:21.602Z,-0.80
2023-01-27T12:50:56.951Z,-0.79
2023-01-27T12:53:27.946Z,-0.75
2023-01-27T12:56:07.257Z,-0.72
2023-01-27T12:58:34.117Z,-0.71
2023-01-27T13:01:04.626Z,-0.71
2023-01-27T13:03:37.272Z,-0.72
2023-01-27T13:06:14.199Z,-0.76
2023-01-27T13:08:42.105Z,-0.79
2023-01-27T13:11:09.678Z,-0.79
2023-01-27T13:13:36.888Z,-0.79
2023-01-27T13:16:03.969Z,-0.78
2023-01-27T13:18:35.704Z,-0.81
2023-01-27T13:21:32.242Z,-0.83
2023-01-27T13:24:00.506Z,-0.85
2023-01-27T13:26:29.667Z,-0.84
2023-01-27T13:29:05.886Z,-0.86
2023-01-27T13:31:43.230Z,-0.89
2023-01-27T13:34:31.581Z,-0.94
2023-01-27T13:37:03.799Z,-0.99
2023-01-27T13:39:49.399Z,-1.04
2023-01-27T13:42:22.559Z,-1.08
2023-01-27T13:44:51.764Z,-1.11
2023-01-27T13:47:20.978Z,-1.14
2023-01-27T13:49:50.881Z,-1.18
2023-01-27T13:52:18.100Z,-1.19
2023-01-27T13:54:45.250Z,-1.19
2023-01-27T13:57:23.006Z,-1.17
2023-01-27T14:00:00.096Z,-1.16
2023-01-27T14:02:30.273Z,-1.15
2023-01-27T14:05:06.554Z,-1.13
2023-01-27T14:07:44.158Z,-1.13
2023-01-27T14:10:29.939Z,-1.13
2023-01-27T14:13:02.853Z,-1.14
2023-01-27T14:15:30.098Z,-1.15
2023-01-27T14:18:19.397Z,-1.18
2023-01-27T14:21:05.914Z,-1.21
2023-01-27T14:23:48.363Z,-1.20
2023-01-27T14:26:18.629Z,-1.20
2023-01-27T14:28:59.325Z,-1.19
2023-01-27T14:31:37.806Z,-1.16
2023-01-27T14:34:15.999Z,-1.15
2023-01-27T14:36:48.519Z,-1.15
2023-01-27T14:39:30.732Z,-1.16
2023-01-27T14:42:11.481Z,-1.16
2023-01-27T14:45:04.309Z,-1.18
2023-01-27T14:47:40.799Z,-1.21
2023-01-27T14:50:13.805Z,-1.23
2023-01-27T14:52:54.362Z,-1.21
2023-01-27T14:55:50.145Z,-1.22
2023-01-27T14:58:32.706Z,-1.24
2023-01-27T15:01:05.863Z,-1.26
2023-01-27T15:03:51.801Z,-1.27
2023-01-27T15:06:47.572Z,-1.28
2023-01-27T15:09:28.229Z,-1.29
2023-01-27T15:11:58.257Z,-1.27
2023-01-27T15:14:57.857Z,-1.23
2023-01-27T15:17:36.414Z,-1.19
2023-01-27T15:20:18.743Z,-1.16
2023-01-27T15:22:50.298Z,-1.16
2023-01-27T15:25:33.802Z,-1.13
2023-01-27T15:28:02.055Z,-1.12
2023-01-27T15:30:29.200Z,-1.13
2023-01-27T15:32:56.618Z,-1.15
2023-01-27T15:35:30.259Z,-1.16
2023-01-27T15:38:09.691Z,-1.16
2023-01-27T15:40:56.367Z,-1.15
2023-01-27T15:43:27.778Z,-1.12
2023-01-27T15:45:55.376Z,-1.11
2023-01-27T15:48:26.433Z,-1.09
2023-01-27T15:51:01.402Z,-1.08
2023-01-27T15:53:44.730Z,-1.07
2023-01-27T15:56:11.764Z,-1.07
2023-01-27T15:58:41.138Z,-1.06
2023-01-27T16:01:23.008Z,-1.07
2023-01-27T16:03:51.779Z,-1.07
2023-01-27T16:06:23.670Z,-1.07
2023-01-27T16:08:52.679Z,-1.06
2023-01-27T16:11:24.042Z,-1.04
2023-01-27T16:13:51.067Z,-1.02
2023-01-27T16:16:18.046Z,-1.00
2023-01-27T16:18:51.617Z,-0.96
2023-01-27T16:21:33.541Z,-0.97
2023-01-27T16:24:05.357Z,-0.95
2023-01-27T16:26:45.621Z,-0.94
2023-01-27T16:29:12.450Z,-0.94
2023-01-27T16:31:40.923Z,-0.94
2023-01-27T16:34:15.488Z,-0.93
2023-01-27T16:36:42.592Z,-0.93
2023-01-27T16:39:18.654Z,-0.94
2023-01-27T16:41:52.017Z,-0.94
2023-01-27T16:44:40.255Z,-0.93
2023-01-27T16:47:16.952Z,-0.92
2023-01-27T16:49:44.270Z,-0.92
2023-01-27T16:52:17.516Z,-0.90
2023-01-27T16:54:45.681Z,-0.87
2023-01-27T16:57:25.062Z,-0.85
2023-01-27T16:59:52.203Z,-0.83
2023-01-27T17:02:21.068Z,-0.80
2023-01-27T17:04:52.790Z,-0.78
2023-01-27T17:07:19.623Z,-0.75
2023-01-27T17:09:51.255Z,-0.75
2023-01-27T17:12:34.878Z,-0.73
2023-01-27T17:15:12.221Z,-0.69
2023-01-27T17:17:40.145Z,-0.70
2023-01-27T17:20:08.096Z,-0.69
2023-01-27T17:22:43.163Z,-0.67
2023-01-27T17:25:22.781Z,-0.69
2023-01-27T17:27:49.963Z,-0.69
2023-01-27T17:30:25.098Z,-0.68
2023-01-27T17:32:53.606Z,-0.63
2023-01-27T17:35:23.978Z,-0.59
2023-01-27T17:37:50.955Z,-0.55
2023-01-27T17:40:22.400Z,-0.56
2023-01-27T17:42:49.849Z,-0.62
2023-01-27T17:45:22.020Z,-0.65
2023-01-27T17:47:49.252Z,-0.65
2023-01-27T17:50:17.729Z,-0.62
2023-01-27T17:52:52.105Z,-0.61
2023-01-27T17:55:43.479Z,-0.60
2023-01-27T17:58:15.531Z,-0.60
2023-01-27T18:00:44.231Z,-0.57
2023-01-27T18:03:15.482Z,-0.54
2023-01-27T18:05:44.268Z,-0.52
2023-01-27T18:08:11.882Z,-0.50
2023-01-27T18:10:41.088Z,-0.48
2023-01-27T18:13:20.315Z,-0.48
2023-01-27T18:15:51.576Z,-0.48
2023-01-27T18:18:23.186Z,-0.50
2023-01-27T18:20:53.988Z,-0.52
2023-01-27T18:23:31.269Z,-0.54
2023-01-27T18:26:21.443Z,-0.56
2023-01-27T18:28:53.621Z,-0.55
2023-01-27T18:31:25.129Z,-0.57
2023-01-27T18:33:56.477Z,-0.58
2023-01-27T18:36:24.886Z,-0.58
2023-01-27T18:38:52.320Z,-0.59
2023-01-27T18:41:22.934Z,-0.62
2023-01-27T18:43:49.764Z,-0.62
2023-01-27T18:46:16.759Z,-0.63
2023-01-27T18:48:43.926Z,-0.63
2023-01-27T18:51:14.960Z,-0.63
2023-01-27T18:53:45.719Z,-0.62
2023-01-27T18:56:12.562Z,-0.63
2023-01-27T18:58:39.505Z,-0.62
2023-01-27T19:01:13.516Z,-0.60
2023-01-27T19:03:40.606Z,-0.55
2023-01-27T19:06:15.921Z,-0.52
2023-01-27T19:08:43.441Z,-0.50
2023-01-27T19:11:14.062Z,-0.47
2023-01-27T19:13:41.881Z,-0.45
2023-01-27T19:16:21.539Z,-0.45
2023-01-27T19:18:51.547Z,-0.43
2023-01-27T19:21:18.828Z,-0.44
2023-01-27T19:23:46.141Z,-0.45
2023-01-27T19:26:21.437Z,-0.46
2023-01-27T19:28:56.214Z,-0.47
2023-01-27T19:31:23.877Z,-0.46
2023-01-27T19:33:51.631Z,-0.45
2023-01-27T19:36:23.799Z,-0.43
2023-01-27T19:39:12.973Z,-0.42
2023-01-27T19:41:40.219Z,-0.39
2023-01-27T19:44:08.204Z,-0.35
2023-01-27T19:46:38.554Z,-0.32
2023-01-27T19:49:06.648Z,-0.27
2023-01-27T19:51:39.715Z,-0.23
2023-01-27T19:54:06.825Z,-0.18
2023-01-27T19:56:33.880Z,-0.18
2023-01-27T19:59:01.142Z,-0.17
2023-01-27T20:01:28.369Z,-0.16
2023-01-27T20:04:00.951Z,-0.12
2023-01-27T20:06:30.074Z,-0.10
2023-01-27T20:08:59.809Z,-0.10
2023-01-27T20:11:27.332Z,-0.10
2023-01-27T20:13:57.444Z,-0.13
2023-01-27T20:16:25.890Z,-0.14
2023-01-27T20:18:53.962Z,-0.16
2023-01-27T20:21:20.945Z,-0.18
2023-01-27T20:23:48.390Z,-0.22
2023-01-27T20:26:16.325Z,-0.25
2023-01-27T20:28:44.022Z,-0.29
2023-01-27T20:31:14.602Z,-0.31
2023-01-27T20:33:41.586Z,-0.31
2023-01-27T20:36:09.539Z,-0.29
2023-01-27T20:38:36.693Z,-0.26
2023-01-27T20:41:07.704Z,-0.27
2023-01-27T20:43:35.693Z,-0.31
2023-01-27T20:46:04.366Z,-0.31
2023-01-27T20:48:41.001Z,-0.34
2023-01-27T20:51:09.433Z,-0.38
2023-01-27T20:53:41.768Z,-0.39
2023-01-27T20:56:12.743Z,-0.41
2023-01-27T20:58:39.832Z,-0.45
2023-01-27T21:01:08.314Z,-0.47
2023-01-27T21:03:36.167Z,-0.46
2023-01-27T21:06:03.706Z,-0.45
2023-01-27T21:08:30.590Z,-0.45
2023-01-27T21:10:59.548Z,-0.43
2023-01-27T21:13:26.587Z,-0.42
2023-01-27T21:15:53.685Z,-0.41
2023-01-27T21:18:20.731Z,-0.40
2023-01-27T21:20:48.351Z,-0.37
2023-01-27T21:23:16.050Z,-0.38
2023-01-27T21:25:43.097Z,-0.40
2023-01-27T21:28:10.105Z,-0.37
2023-01-27T21:30:36.981Z,-0.40
2023-01-27T21:33:03.996Z,-0.41
2023-01-27T21:35:30.959Z,-0.42
2023-01-27T21:37:57.908Z,-0.39
2023-01-27T21:40:24.877Z,-0.37
2023-01-27T21:43:10.323Z,-0.34
2023-01-27T21:45:37.395Z,-0.31
2023-01-27T21:48:04.754Z,-0.29
2023-01-27T21:50:31.834Z,-0.26
2023-01-27T21:52:58.756Z,-0.21
2023-01-27T21:55:27.277Z,-0.17
2023-01-27T21:57:55.272Z,-0.13
2023-01-27T22:00:23.654Z,-0.10
2023-01-27T22:02:56.336Z,-0.06
2023-01-27T22:05:23.644Z,-0.05
2023-01-27T22:07:51.861Z,-0.02
2023-01-27T22:10:20.171Z,0.02
2023-01-27T22:12:47.251Z,0.08
2023-01-27T22:15:15.588Z,0.12
2023-01-27T22:17:43.058Z,0.17
2023-01-27T22:20:12.967Z,0.19
2023-01-27T22:22:39.905Z,0.21
2023-01-27T22:25:07.456Z,0.23
2023-01-27T22:27:35.138Z,0.25
2023-01-27T22:30:02.018Z,0.27
2023-01-27T22:32:29.519Z,0.28
2023-01-27T22:34:56.658Z,0.31
2023-01-27T22:37:23.515Z,0.32
2023-01-27T22:39:50.583Z,0.32
2023-01-27T22:42:20.534Z,0.35
2023-01-27T22:44:47.370Z,0.35
2023-01-27T22:47:14.253Z,0.36
2023-01-27T22:49:41.017Z,0.38
2023-01-27T22:52:07.887Z,0.38
2023-01-27T22:54:34.730Z,0.38
2023-01-27T22:57:06.253Z,0.34
2023-01-27T22:59:33.128Z,0.28
2023-01-27T23:01:59.976Z,0.25
2023-01-27T23:04:26.912Z,0.21
2023-01-27T23:06:53.779Z,0.19
2023-01-27T23:09:20.704Z,0.19
2023-01-27T23:11:47.525Z,0.19
2023-01-27T23:14:17.151Z,0.20
2023-01-27T23:16:44.185Z,0.19
2023-01-27T23:19:11.198Z,0.19
2023-01-27T23:21:37.992Z,0.21
2023-01-27T23:24:07.511Z,0.22
2023-01-27T23:26:37.246Z,0.20
2023-01-27T23:29:06.848Z,0.19
2023-01-27T23:31:40.375Z,0.18
2023-01-27T23:34:07.356Z,0.17
2023-01-27T23:36:40.583Z,0.18
2023-01-27T23:39:07.531Z,0.13
2023-01-27T23:41:34.406Z,0.09
2023-01-27T23:44:01.309Z,0.06
2023-01-27T23:46:28.236Z,0.04
2023-01-27T23:48:55.485Z,0.01
2023-01-27T23:51:22.746Z,-0.02
2023-01-27T23:53:50.022Z,-0.05
2023-01-27T23:56:19.446Z,-0.10
2023-01-27T23:58:46.315Z,-0.14
